Time;durP1;ratioP1;P1;durP2;ratioP2;P2;SDS_P1;SDS_P2;PMS_P1;PMS_P2;Temp;Humidity;BMP_temperature;BMP_pressure;BME280_temperature;BME280_humidity;BME280_pressure;Samples;Min_cycle;Max_cycle;Signal;HPM_P1;HPM_P2
2021/04/12 00:00:23;;;;;;;12.53;5.50;;;;;;;7.57;59.88;96332.91;5155145;27;20212;-62
2021/04/12 00:02:56;;;;;;;7.10;4.20;;;;;;;7.52;59.50;96322.56;5155005;27;20198;-62
2021/04/12 00:05:32;;;;;;;7.83;4.30;;;;;;;7.72;58.44;96324.47;5154873;27;20632;-62
2021/04/12 00:08:08;;;;;;;7.17;4.00;;;;;;;7.76;58.16;96325.50;5154806;27;20197;-62
2021/04/12 00:10:41;;;;;;;8.43;4.27;;;;;;;7.81;58.08;96322.16;5154729;27;20194;-62
2021/04/12 00:13:13;;;;;;;10.17;4.80;;;;;;;7.75;58.01;96316.97;5154724;27;20774;-62
2021/04/12 00:15:45;;;;;;;7.70;4.47;;;;;;;7.74;58.50;96318.00;5155121;27;20639;-62
2021/04/12 00:18:20;;;;;;;7.10;4.30;;;;;;;7.76;58.41;96309.97;5154945;27;20201;-62
2021/04/12 00:20:50;;;;;;;7.23;3.40;;;;;;;7.82;58.55;96319.28;5154853;27;20196;-63
2021/04/12 00:23:24;;;;;;;6.97;3.77;;;;;;;7.81;58.10;96324.75;5154729;27;20197;-62
2021/04/12 00:25:58;;;;;;;6.17;4.03;;;;;;;7.81;58.06;96324.75;5154693;27;20194;-63
2021/04/12 00:28:31;;;;;;;6.47;4.40;;;;;;;7.79;58.18;96325.75;5155325;27;20186;-63
2021/04/12 00:31:04;;;;;;;5.87;3.70;;;;;;;7.93;57.59;96323.47;5154674;27;20200;-64
2021/04/12 00:33:37;;;;;;;13.57;5.93;;;;;;;7.95;57.64;96320.63;5154552;27;20226;-63
2021/04/12 00:36:11;;;;;;;8.63;5.40;;;;;;;7.91;57.87;96317.00;5154617;27;20227;-62
2021/04/12 00:38:45;;;;;;;11.97;5.40;;;;;;;7.87;58.59;96319.31;5154440;27;20202;-63
2021/04/12 00:41:30;;;;;;;10.60;5.63;;;;;;;7.95;58.61;96312.88;5154544;27;20189;-63
2021/04/12 00:44:04;;;;;;;15.53;7.67;;;;;;;7.96;58.28;96314.44;5154564;27;20613;-61
2021/04/12 00:46:54;;;;;;;17.73;9.03;;;;;;;7.99;58.63;96314.69;5153907;27;20194;-61
2021/04/12 00:49:35;;;;;;;20.10;9.37;;;;;;;8.05;57.68;96318.06;5154353;27;20202;-63
2021/04/12 00:52:20;;;;;;;13.73;7.80;;;;;;;8.08;57.46;96309.78;5154311;27;20202;-62
2021/04/12 00:55:19;;;;;;;17.57;8.60;;;;;;;8.17;57.11;96310.81;5154248;27;20704;-62
2021/04/12 00:57:59;;;;;;;6.50;4.63;;;;;;;8.31;56.85;96314.50;5154229;27;20277;-62
2021/04/12 01:00:30;;;;;;;8.17;4.17;;;;;;;8.20;56.43;96307.72;5154483;27;20201;-62
2021/04/12 01:03:13;;;;;;;8.17;5.57;;;;;;;8.21;56.76;96315.25;5154140;27;20197;-62
2021/04/12 01:05:56;;;;;;;11.57;4.70;;;;;;;8.38;56.38;96315.00;5154041;27;20197;-62
2021/04/12 01:08:50;;;;;;;8.57;5.03;;;;;;;8.34;56.60;96303.63;5153913;27;20197;-63
2021/04/12 01:12:01;;;;;;;6.20;3.80;;;;;;;8.30;56.80;96312.94;5153831;27;20193;-62
2021/04/12 01:15:12;;;;;;;4.50;3.63;;;;;;;8.44;56.08;96305.44;5153432;27;20236;-63
2021/04/12 01:17:54;;;;;;;6.07;3.83;;;;;;;8.32;57.11;96303.09;5153799;27;20602;-62
2021/04/12 01:20:56;;;;;;;6.57;4.50;;;;;;;8.23;59.01;96304.63;5153869;27;20194;-62
2021/04/12 01:23:59;;;;;;;7.60;4.17;;;;;;;8.27;58.71;96299.72;5148458;27;20189;-62
2021/04/12 01:27:05;;;;;;;6.57;4.20;;;;;;;8.24;59.88;96306.19;5153597;27;20208;-62
2021/04/12 01:30:38;;;;;;;6.30;4.20;;;;;;;8.13;60.77;96300.22;5153980;27;20208;-63
2021/04/12 01:33:32;;;;;;;7.67;4.50;;;;;;;7.98;64.89;96309.75;5069291;28;20218;-63
2021/04/12 01:36:43;;;;;;;5.80;4.37;;;;;;;7.78;68.82;96305.31;5069166;28;20230;-61
2021/04/12 01:39:34;;;;;;;8.63;4.30;;;;;;;7.61;69.75;96308.13;5085275;28;20230;-63
2021/04/12 01:42:04;;;;;;;5.93;4.43;;;;;;;7.53;70.23;96306.00;5153328;27;20203;-63
2021/04/12 01:44:41;;;;;;;5.67;4.53;;;;;;;7.57;70.12;96301.88;5153462;27;20202;-63
2021/04/12 01:47:29;;;;;;;4.87;3.50;;;;;;;7.54;70.04;96302.41;5153129;27;20682;-63
2021/04/12 01:50:18;;;;;;;7.87;4.70;;;;;;;7.53;69.49;96311.19;5153345;27;20301;-62
2021/04/12 01:53:20;;;;;;;7.67;4.70;;;;;;;7.68;68.53;96302.69;5153051;27;20267;-63
2021/04/12 01:56:11;;;;;;;6.90;4.50;;;;;;;7.61;69.45;96302.16;5152978;27;20671;-63
2021/04/12 01:58:46;;;;;;;7.83;4.60;;;;;;;7.70;69.13;96306.59;5152265;27;20193;-61
2021/04/12 02:01:50;;;;;;;5.80;4.40;;;;;;;7.61;71.14;96300.38;5152823;27;20197;-62
2021/04/12 02:04:35;;;;;;;8.70;5.20;;;;;;;7.66;70.75;96295.22;5152190;27;20198;-63
2021/04/12 02:07:18;;;;;;;8.33;4.93;;;;;;;7.61;70.81;96297.00;5153226;27;20292;-63
2021/04/12 02:10:04;;;;;;;8.67;5.67;;;;;;;7.65;71.23;96298.03;5152958;27;20190;-63
2021/04/12 02:12:42;;;;;;;9.00;6.13;;;;;;;7.64;70.54;96302.44;5152480;27;20734;-62
2021/04/12 02:15:18;;;;;;;9.23;6.40;;;;;;;7.61;69.72;96297.78;5152547;27;20293;-63
2021/04/12 02:18:10;;;;;;;12.47;6.80;;;;;;;7.63;69.02;96305.25;5152833;27;20247;-63
2021/04/12 02:20:54;;;;;;;10.67;7.00;;;;;;;7.73;69.04;96300.13;5152498;27;20213;-63
2021/04/12 02:23:37;;;;;;;8.63;5.70;;;;;;;7.84;67.71;96293.94;5152325;27;20202;-62
2021/04/12 02:26:24;;;;;;;10.13;6.00;;;;;;;7.82;67.79;96292.66;5152467;27;20230;-63
2021/04/12 02:29:02;;;;;;;7.40;5.33;;;;;;;7.71;68.55;96286.69;5152351;27;20193;-63
2021/04/12 02:31:44;;;;;;;8.77;5.30;;;;;;;7.65;67.30;96285.09;5152391;27;20276;-63
2021/04/12 02:34:24;;;;;;;9.13;7.00;;;;;;;7.72;67.82;96276.06;5152536;27;20225;-61
2021/04/12 02:37:07;;;;;;;10.03;5.50;;;;;;;7.85;67.00;96274.03;5152209;27;20751;-63
2021/04/12 02:39:56;;;;;;;10.80;5.90;;;;;;;7.79;66.54;96273.25;5152169;27;20285;-62
2021/04/12 02:42:37;;;;;;;9.90;5.60;;;;;;;7.84;66.29;96270.66;5152406;27;20189;-63
2021/04/12 02:45:19;;;;;;;8.47;5.80;;;;;;;7.94;65.65;96272.50;5152028;27;20818;-62
2021/04/12 02:48:12;;;;;;;8.43;5.67;;;;;;;8.05;64.64;96277.44;5152046;27;20228;-62
2021/04/12 02:51:04;;;;;;;9.60;5.37;;;;;;;7.98;64.59;96276.88;5151969;27;20221;-63
2021/04/12 02:53:44;;;;;;;8.80;5.30;;;;;;;8.07;64.14;96277.94;5152260;27;20253;-63
2021/04/12 02:56:39;;;;;;;8.37;6.03;;;;;;;8.03;64.32;96273.53;5151885;27;20197;-62
2021/04/12 02:59:52;;;;;;;8.07;5.53;;;;;;;8.07;65.03;96277.19;5152232;27;20198;-63
2021/04/12 03:02:47;;;;;;;12.47;6.67;;;;;;;8.07;67.22;96269.41;5152119;27;20215;-63
2021/04/12 03:05:53;;;;;;;8.40;5.57;;;;;;;7.89;71.85;96267.31;5151744;27;20211;-62
2021/04/12 03:08:32;;;;;;;6.93;5.47;;;;;;;7.77;73.34;96270.91;5151613;27;20196;-64
2021/04/12 03:11:35;;;;;;;8.77;5.73;;;;;;;7.90;73.09;96269.66;5152146;27;20193;-62
2021/04/12 03:14:26;;;;;;;9.27;5.80;;;;;;;7.93;73.13;96268.34;5151330;27;20692;-63
2021/04/12 03:17:31;;;;;;;11.90;6.07;;;;;;;7.96;72.01;96257.50;5151568;27;20639;-63
2021/04/12 03:20:17;;;;;;;48.50;25.73;;;;;;;7.95;67.20;96259.31;5075269;27;20245;-64
2021/04/12 03:23:08;;;;;;;145.90;66.13;;;;;;;8.00;65.13;96259.31;5151537;27;20250;-63
2021/04/12 03:25:52;;;;;;;38.53;20.07;;;;;;;8.01;65.04;96265.25;5151582;27;20186;-63
2021/04/12 03:28:30;;;;;;;28.67;13.47;;;;;;;7.96;64.89;96267.84;5151658;27;20189;-62
2021/04/12 03:31:15;;;;;;;21.83;9.70;;;;;;;8.07;71.72;96265.00;5151706;27;20190;-63
2021/04/12 03:34:08;;;;;;;15.57;7.10;;;;;;;7.99;72.44;96262.91;5151498;27;20746;-62
2021/04/12 03:36:51;;;;;;;10.87;5.20;;;;;;;7.68;72.47;96262.09;5151828;27;20194;-63
2021/04/12 03:39:21;;;;;;;8.13;4.83;;;;;;;7.70;73.17;96270.38;5151805;27;20681;-62
2021/04/12 03:42:15;;;;;;;9.80;4.90;;;;;;;7.80;71.79;96269.63;5151542;27;20580;-62
2021/04/12 03:45:14;;;;;;;10.73;5.77;;;;;;;7.77;72.58;96268.31;5151822;27;20726;-61
2021/04/12 03:48:33;;;;;;;16.73;7.43;;;;;;;7.81;73.16;96266.00;5151321;27;20190;-63
2021/04/12 03:51:23;;;;;;;14.30;7.03;;;;;;;7.82;75.03;96261.63;5047184;28;20669;-63
2021/04/12 03:54:23;;;;;;;16.43;7.13;;;;;;;7.83;75.30;96252.78;5047214;28;20731;-64
2021/04/12 03:57:24;;;;;;;12.87;6.70;;;;;;;7.82;75.81;96257.19;5146831;27;20662;-65
2021/04/12 04:00:16;;;;;;;9.97;6.53;;;;;;;7.82;76.62;96259.03;5150686;27;20197;-62
2021/04/12 04:03:00;;;;;;;11.07;7.20;;;;;;;7.86;76.53;96255.66;5148605;27;20743;-63
2021/04/12 04:05:46;;;;;;;10.97;6.93;;;;;;;7.90;76.23;96255.94;5150765;27;20198;-62
2021/04/12 04:08:38;;;;;;;11.83;7.57;;;;;;;7.86;76.17;96257.47;5150849;27;20211;-62
2021/04/12 04:11:25;;;;;;;13.17;7.87;;;;;;;7.89;74.82;96252.56;5150706;27;20231;-62
2021/04/12 04:14:11;;;;;;;13.97;8.83;;;;;;;7.91;74.51;96250.50;5150499;27;20599;-61
2021/04/12 04:17:00;;;;;;;18.07;8.80;;;;;;;7.94;73.79;96254.38;5150776;27;20204;-62
2021/04/12 04:19:48;;;;;;;11.30;7.87;;;;;;;7.95;73.91;96250.75;5150640;27;20189;-62
2021/04/12 04:22:41;;;;;;;10.70;7.40;;;;;;;7.95;75.64;96251.53;5154709;27;20204;-62
2021/04/12 04:26:01;;;;;;;12.53;7.30;;;;;;;7.95;75.97;96251.53;5154737;27;20200;-63
2021/04/12 04:28:43;;;;;;;12.33;6.90;;;;;;;7.97;76.42;96249.44;5113030;27;20627;-62
2021/04/12 04:31:31;;;;;;;11.80;7.23;;;;;;;7.98;77.37;96250.22;5154455;27;20341;-62
2021/04/12 04:34:14;;;;;;;40.77;11.83;;;;;;;8.01;77.95;96247.16;5154121;27;20221;-63
2021/04/12 04:37:23;;;;;;;23.57;9.13;;;;;;;8.03;78.17;96242.47;5154022;27;20193;-63
2021/04/12 04:40:12;;;;;;;12.10;8.80;;;;;;;8.05;78.43;96253.34;5049870;28;20588;-63
2021/04/12 04:42:55;;;;;;;14.13;8.17;;;;;;;8.09;77.95;96244.03;5154096;27;20193;-62
2021/04/12 04:45:37;;;;;;;19.90;8.50;;;;;;;8.12;77.90;96249.47;5154019;27;20653;-63
2021/04/12 04:48:33;;;;;;;19.33;9.33;;;;;;;8.04;78.79;96255.16;5154116;27;20189;-64
2021/04/12 04:51:32;;;;;;;16.17;9.00;;;;;;;7.99;78.81;96256.97;5153912;27;20192;-64
2021/04/12 04:54:13;;;;;;;17.37;9.60;;;;;;;8.09;78.78;96251.81;5153872;27;20233;-63
2021/04/12 04:56:52;;;;;;;25.33;13.30;;;;;;;8.12;78.78;96266.81;5153884;27;20561;-62
2021/04/12 04:59:35;;;;;;;28.37;14.30;;;;;;;8.19;78.56;96265.53;5153828;27;20208;-64
2021/04/12 05:02:22;;;;;;;32.33;15.57;;;;;;;8.13;79.27;96269.16;5153805;27;20225;-63
2021/04/12 05:05:22;;;;;;;22.20;11.87;;;;;;;8.27;78.89;96273.81;5154022;27;20209;-62
2021/04/12 05:08:08;;;;;;;20.43;12.23;;;;;;;8.38;78.45;96265.03;5153560;27;20222;-63
2021/04/12 05:11:10;;;;;;;27.57;12.93;;;;;;;8.42;78.69;96255.72;5153776;27;20198;-64
2021/04/12 05:13:52;;;;;;;24.63;13.30;;;;;;;8.51;78.61;96257.53;5139369;27;20237;-63
2021/04/12 05:16:38;;;;;;;27.07;14.10;;;;;;;8.38;79.44;96252.09;5153370;27;20276;-63
2021/04/12 05:19:43;;;;;;;17.10;12.07;;;;;;;8.50;78.80;96247.41;5153335;27;20205;-62
2021/04/12 05:22:42;;;;;;;93.45;33.65;;;;;;;8.45;76.47;96250.78;5153159;27;20353;-61
2021/04/12 05:25:25;;;;;;;47.80;18.20;;;;;;;8.50;74.81;96250.00;5148254;27;20190;-63
2021/04/12 05:28:23;;;;;;;35.27;15.13;;;;;;;8.64;74.42;96253.63;5153160;27;20204;-61
2021/04/12 05:31:05;;;;;;;28.47;12.00;;;;;;;8.78;73.81;96249.44;5146714;27;20205;-61
2021/04/12 05:33:48;;;;;;;24.73;11.33;;;;;;;8.83;73.34;96246.84;5152902;27;20714;-64
2021/04/12 05:36:42;;;;;;;17.57;10.40;;;;;;;8.72;72.02;96250.47;5153046;27;20189;-62
2021/04/12 05:39:42;;;;;;;15.83;9.33;;;;;;;8.84;71.64;96250.22;5153173;27;20277;-62
2021/04/12 05:42:36;;;;;;;22.67;9.10;;;;;;;8.79;70.24;96266.53;5136128;27;20197;-62
2021/04/12 05:45:24;;;;;;;43.43;17.90;;;;;;;8.92;70.57;96260.03;5152696;27;20204;-64
2021/04/12 05:48:07;;;;;;;22.83;10.67;;;;;;;9.05;67.86;96262.88;5152779;27;20683;-64
2021/04/12 05:50:58;;;;;;;21.33;10.30;;;;;;;9.19;67.41;96265.66;5153297;27;20201;-64
2021/04/12 05:53:47;;;;;;;22.97;12.07;;;;;;;9.27;67.28;96262.50;5152651;27;20206;-64
2021/04/12 05:56:39;;;;;;;22.13;12.30;;;;;;;9.38;66.07;96258.06;5152948;27;20684;-63
2021/04/12 05:59:26;;;;;;;20.37;13.33;;;;;;;9.48;66.88;96263.19;5152452;27;20280;-64
2021/04/12 06:02:13;;;;;;;21.60;12.47;;;;;;;9.53;66.16;96263.19;5152798;27;20208;-63
2021/04/12 06:04:51;;;;;;;27.03;15.37;;;;;;;9.47;66.52;96257.22;5152658;27;20186;-63
2021/04/12 06:07:59;;;;;;;24.27;12.57;;;;;;;9.60;66.37;96261.06;5152953;27;20189;-63
2021/04/12 06:10:50;;;;;;;16.77;11.70;;;;;;;9.73;67.73;96255.28;5152846;27;20201;-62
2021/04/12 06:13:51;;;;;;;15.77;9.83;;;;;;;9.95;64.65;96257.50;5152467;27;20609;-63
2021/04/12 06:16:53;;;;;;;19.13;10.57;;;;;;;10.10;64.25;96261.81;5152543;27;20248;-63
2021/04/12 06:20:06;;;;;;;38.43;11.43;;;;;;;10.18;64.80;96256.06;5152891;27;20207;-63
2021/04/12 06:22:53;;;;;;;13.87;8.03;;;;;;;10.32;62.00;96254.38;5068384;28;20710;-64
2021/04/12 06:25:52;;;;;;;15.00;7.83;;;;;;;10.51;58.22;96257.84;5152478;27;20194;-64
2021/04/12 06:28:36;;;;;;;21.47;9.73;;;;;;;10.59;61.61;96248.72;5144196;27;20668;-62
2021/04/12 06:31:31;;;;;;;23.83;10.13;;;;;;;10.75;61.62;96245.69;5152288;27;20190;-62
2021/04/12 06:34:20;;;;;;;19.40;9.07;;;;;;;10.72;59.76;96245.44;5152447;27;20312;-62
2021/04/12 06:36:56;;;;;;;17.03;9.43;;;;;;;11.02;60.08;96245.13;5149678;27;20281;-62
2021/04/12 06:39:57;;;;;;;30.83;9.07;;;;;;;11.31;54.37;96249.50;5152075;27;20209;-62
2021/04/12 06:43:02;;;;;;;15.30;7.20;;;;;;;11.47;53.66;96243.06;5152076;27;20619;-62
2021/04/12 06:46:25;;;;;;;12.47;7.37;;;;;;;11.74;53.51;96251.06;5145441;27;20190;-62
2021/04/12 06:49:31;;;;;;;15.47;8.30;;;;;;;11.76;53.26;96248.94;5145462;27;20609;-63
2021/04/12 06:52:31;;;;;;;14.17;7.97;;;;;;;11.77;51.32;96250.50;5104480;27;20197;-63
2021/04/12 06:55:16;;;;;;;15.63;8.10;;;;;;;12.14;52.24;96254.13;5151884;27;20225;-62
2021/04/12 06:58:16;;;;;;;15.90;7.17;;;;;;;12.40;53.32;96250.84;5151976;27;20277;-62
2021/04/12 07:01:25;;;;;;;16.13;7.57;;;;;;;12.75;51.16;96257.28;5143811;27;20201;-64
2021/04/12 07:04:36;;;;;;;11.40;6.50;;;;;;;13.08;50.08;96268.44;5151825;27;20198;-61
2021/04/12 07:07:38;;;;;;;10.30;6.53;;;;;;;13.64;47.20;96267.38;5138324;27;20571;-63
2021/04/12 07:10:39;;;;;;;13.47;6.77;;;;;;;14.05;49.77;96257.56;5151918;27;20234;-61
2021/04/12 07:13:18;;;;;;;9.10;5.87;;;;;;;14.32;43.80;96243.63;5146464;27;20220;-62
2021/04/12 07:16:22;;;;;;;21.27;6.67;;;;;;;14.53;44.63;96242.09;5151705;27;20229;-62
2021/04/12 07:19:36;;;;;;;13.77;6.77;;;;;;;14.79;44.95;96241.47;5151489;27;20193;-62
2021/04/12 07:22:28;;;;;;;12.37;5.90;;;;;;;14.67;43.49;96239.41;5130673;27;20190;-62
2021/04/12 07:25:49;;;;;;;7.07;4.60;;;;;;;14.45;46.36;96242.03;5151596;27;20254;-62
2021/04/12 07:29:07;;;;;;;8.90;4.40;;;;;;;14.41;45.73;96236.63;5145177;27;20680;-61
2021/04/12 07:31:56;;;;;;;9.40;4.50;;;;;;;14.64;44.19;96234.78;5145905;27;20249;-62
2021/04/12 07:34:56;;;;;;;14.57;5.27;;;;;;;14.48;45.00;96225.75;5151408;27;20218;-63
2021/04/12 07:38:02;;;;;;;25.43;8.90;;;;;;;14.41;43.08;96223.56;5148162;27;20360;-62
2021/04/12 07:41:19;;;;;;;17.57;6.60;;;;;;;14.09;42.99;96219.34;5146515;27;20579;-62
2021/04/12 07:44:39;;;;;;;11.90;7.23;;;;;;;14.34;44.54;96227.66;5151371;27;20196;-62
2021/04/12 07:47:45;;;;;;;8.37;5.60;;;;;;;14.22;45.85;96218.50;5151351;27;20281;-62
2021/04/12 07:50:47;;;;;;;24.33;8.37;;;;;;;14.37;45.82;96216.59;5151465;27;20197;-61
2021/04/12 07:54:08;;;;;;;9.27;6.20;;;;;;;14.24;43.74;96218.22;5151233;27;20714;-61
2021/04/12 07:57:10;;;;;;;24.87;14.00;;;;;;;14.36;46.65;96212.41;5070073;28;20212;-62
2021/04/12 08:00:12;;;;;;;8.80;5.17;;;;;;;14.37;45.74;96199.09;5071109;28;20191;-61
2021/04/12 08:02:57;;;;;;;10.13;6.00;;;;;;;14.43;43.99;96202.34;5150106;27;20249;-61
2021/04/12 08:05:59;;;;;;;13.90;5.77;;;;;;;14.33;44.24;96198.09;5155059;27;20193;-61
2021/04/12 08:09:13;;;;;;;11.50;5.30;;;;;;;14.25;43.89;96205.91;5155267;27;20230;-60
2021/04/12 08:12:27;;;;;;;10.90;5.47;;;;;;;14.35;44.22;96201.19;5070883;28;20199;-62
2021/04/12 08:15:25;;;;;;;11.70;6.27;;;;;;;14.62;44.08;96190.59;5070658;28;20228;-62
2021/04/12 08:18:29;;;;;;;9.73;5.43;;;;;;;14.83;42.66;96193.44;5153620;27;20190;-63
2021/04/12 08:21:25;;;;;;;89.83;11.00;;;;;;;14.98;44.50;96187.03;5154852;27;20594;-62
2021/04/12 08:24:29;;;;;;;13.63;6.57;;;;;;;15.15;44.05;96186.28;5154760;27;20676;-60
2021/04/12 08:27:47;;;;;;;11.07;6.30;;;;;;;15.61;42.15;96183.94;5154577;27;20280;-61
2021/04/12 08:30:50;;;;;;;8.87;6.10;;;;;;;15.65;41.92;96186.69;5155087;27;20185;-62
2021/04/12 08:33:59;;;;;;;9.47;5.90;;;;;;;15.52;44.36;96177.91;5154746;27;20197;-62
2021/04/12 08:37:01;;;;;;;18.00;6.53;;;;;;;16.10;45.51;96169.56;5154765;27;20185;-62
2021/04/12 08:40:01;;;;;;;12.57;5.30;;;;;;;16.33;44.60;96168.28;5154656;27;20269;-62
2021/04/12 08:43:09;;;;;;;10.50;5.60;;;;;;;16.60;40.27;96166.38;5154393;27;20336;-63
2021/04/12 08:46:05;;;;;;;8.70;5.43;;;;;;;16.51;39.98;96161.13;5148064;27;20190;-62
2021/04/12 08:48:52;;;;;;;23.43;6.60;;;;;;;16.07;40.98;96159.69;5152212;27;20200;-62
2021/04/12 08:52:00;;;;;;;8.93;5.87;;;;;;;16.23;41.33;96150.25;5154546;27;20233;-61
2021/04/12 08:54:57;;;;;;;7.90;5.67;;;;;;;16.29;40.74;96151.59;5049800;28;20235;-63
2021/04/12 08:57:59;;;;;;;9.90;5.40;;;;;;;16.22;43.48;96147.94;5154115;27;20682;-63
2021/04/12 09:01:03;;;;;;;11.03;5.43;;;;;;;16.27;44.75;96145.94;5140186;27;20610;-62
2021/04/12 09:04:14;;;;;;;12.07;6.33;;;;;;;16.88;43.93;96141.25;5153890;27;20194;-63
2021/04/12 09:07:20;;;;;;;24.20;9.57;;;;;;;16.62;44.28;96137.97;5153684;27;20624;-63
2021/04/12 09:10:09;;;;;;;21.33;7.37;;;;;;;17.01;43.39;96132.34;5154038;27;20196;-63
2021/04/12 09:12:58;;;;;;;14.07;8.17;;;;;;;17.11;42.28;96131.97;5149724;27;20680;-62
2021/04/12 09:15:42;;;;;;;10.10;5.60;;;;;;;17.19;44.87;96125.91;5153834;27;20682;-62
2021/04/12 09:18:38;;;;;;;14.07;6.60;;;;;;;17.73;43.27;96118.09;5154029;27;20204;-61
2021/04/12 09:21:44;;;;;;;9.85;5.68;;;;;;;18.14;41.52;96117.22;5153932;27;20211;-62
2021/04/12 09:24:39;;;;;;;19.83;11.70;;;;;;;17.92;41.44;96115.75;5153619;27;20204;-62
2021/04/12 09:27:34;;;;;;;17.27;9.43;;;;;;;18.35;41.93;96112.66;5153632;27;20676;-62
2021/04/12 09:30:33;;;;;;;16.92;8.98;;;;;;;18.19;42.21;96108.34;5153492;27;20194;-62
2021/04/12 09:33:38;;;;;;;24.73;11.88;;;;;;;18.55;40.79;96107.66;5151062;27;20656;-62
2021/04/12 09:36:21;;;;;;;15.55;8.73;;;;;;;18.39;40.49;96091.72;5153412;27;20284;-62
2021/04/12 09:39:39;;;;;;;14.18;5.95;;;;;;;18.61;40.54;96091.31;5153174;27;20194;-62
2021/04/12 09:42:37;;;;;;;13.70;7.43;;;;;;;18.99;40.82;96082.28;5153422;27;20246;-62
2021/04/12 09:45:45;;;;;;;12.30;6.15;;;;;;;18.54;39.17;96077.16;5153286;27;20252;-63
2021/04/12 09:48:58;;;;;;;12.50;7.38;;;;;;;18.67;39.23;96068.94;5153314;27;20193;-62
2021/04/12 09:51:50;;;;;;;11.07;5.60;;;;;;;18.58;38.22;96072.78;5153038;27;21270;-64
2021/04/12 09:55:01;;;;;;;12.52;6.45;;;;;;;18.85;37.75;96067.59;5141539;27;20574;-62
2021/04/12 09:58:04;;;;;;;16.75;8.65;;;;;;;18.67;38.53;96068.19;5088968;28;20582;-62
2021/04/12 10:00:57;;;;;;;26.52;11.98;;;;;;;18.82;38.92;96056.97;5153116;27;20214;-62
2021/04/12 10:04:13;;;;;;;17.58;7.93;;;;;;;18.97;40.20;96052.88;5152803;27;20194;-63
2021/04/12 10:07:13;;;;;;;18.80;8.45;;;;;;;19.59;40.35;96047.84;5153172;27;20225;-62
2021/04/12 10:09:48;;;;;;;13.13;5.07;;;;;;;19.78;36.26;96050.63;5152765;27;20189;-62
2021/04/12 10:12:30;;;;;;;7.97;4.80;;;;;;;19.61;39.14;96042.25;5152559;27;20280;-62
2021/04/12 10:15:04;;;;;;;25.75;7.18;;;;;;;19.81;38.97;96043.16;5111492;28;20219;-59
2021/04/12 10:17:38;;;;;;;22.20;10.43;;;;;;;19.80;39.48;96046.88;5110823;28;20739;-62
2021/04/12 10:20:13;;;;;;;8.85;5.15;;;;;;;20.21;36.38;96033.22;5111300;28;20290;-63
2021/04/12 10:22:57;;;;;;;9.13;5.03;;;;;;;19.97;36.77;96030.75;5111623;28;20187;-62
2021/04/12 10:25:34;;;;;;;11.27;6.28;;;;;;;19.97;36.79;96028.09;5111269;28;20195;-62
2021/04/12 10:28:15;;;;;;;13.27;7.25;;;;;;;20.42;37.26;96019.78;5111335;28;20669;-63
2021/04/12 10:30:50;;;;;;;6.90;3.80;;;;;;;20.45;33.65;96022.50;5111020;28;20206;-61
2021/04/12 10:33:29;;;;;;;10.07;4.40;;;;;;;20.54;33.99;96012.50;5111203;28;20591;-62
2021/04/12 10:36:00;;;;;;;7.05;4.03;;;;;;;20.67;31.70;96013.16;5110898;28;20222;-62
2021/04/12 10:38:31;;;;;;;7.78;3.67;;;;;;;20.72;29.65;96015.53;5111219;28;20665;-61
2021/04/12 10:41:10;;;;;;;11.68;5.13;;;;;;;20.55;34.73;96005.34;5111136;28;20195;-62
2021/04/12 10:43:48;;;;;;;13.50;6.03;;;;;;;20.58;34.32;96007.28;5111331;28;20266;-62
2021/04/12 10:46:20;;;;;;;17.95;7.03;;;;;;;20.72;36.36;96002.34;5110928;28;20195;-60
2021/04/12 10:48:52;;;;;;;12.30;4.00;;;;;;;21.13;35.20;96002.75;5110872;28;20849;-62
2021/04/12 10:51:30;;;;;;;4.03;3.30;;;;;;;21.34;35.02;95998.69;5110781;28;20194;-62
2021/04/12 10:54:34;;;;;;;24.42;10.98;;;;;;;20.72;32.75;96001.56;5110590;28;20215;-61
2021/04/12 10:57:11;;;;;;;8.07;4.25;;;;;;;21.03;34.21;95996.16;5110585;28;20411;-61
2021/04/12 11:00:12;;;;;;;9.30;3.50;;;;;;;21.12;31.24;95988.78;5110621;28;20212;-62
2021/04/12 11:03:12;;;;;;;9.80;4.65;;;;;;;20.86;32.18;95978.09;5110672;28;20195;-62
2021/04/12 11:05:42;;;;;;;8.55;4.40;;;;;;;20.72;32.44;95980.44;5110694;28;20193;-62
2021/04/12 11:08:24;;;;;;;9.23;4.05;;;;;;;20.54;33.19;95964.97;5110520;28;20195;-62
2021/04/12 11:11:05;;;;;;;8.30;3.30;;;;;;;20.87;34.81;95966.41;5110378;28;20286;-63
2021/04/12 11:13:39;;;;;;;12.38;4.18;;;;;;;21.05;34.67;95967.50;5129502;27;20269;-61
2021/04/12 11:16:11;;;;;;;7.05;3.40;;;;;;;21.13;32.80;95957.81;5151713;27;20240;-62
2021/04/12 11:18:56;;;;;;;18.08;7.43;;;;;;;21.33;34.65;95954.84;5151755;27;20594;-62
2021/04/12 11:21:28;;;;;;;11.18;3.53;;;;;;;21.20;33.88;95952.72;5151713;27;20225;-62
2021/04/12 11:24:05;;;;;;;5.85;3.40;;;;;;;21.30;32.86;95952.91;5151438;27;20198;-62
2021/04/12 11:27:11;;;;;;;9.52;3.92;;;;;;;21.75;34.25;95948.78;5151497;27;20588;-64
2021/04/12 11:29:41;;;;;;;14.45;6.70;;;;;;;21.84;34.42;95934.19;5153303;27;20577;-62
2021/04/12 11:32:16;;;;;;;20.17;9.07;;;;;;;21.64;33.36;95939.88;5156253;27;20239;-62
2021/04/12 11:34:52;;;;;;;11.60;3.95;;;;;;;21.72;32.98;95937.00;5156047;27;20225;-62
2021/04/12 11:37:25;;;;;;;5.43;3.08;;;;;;;21.70;32.61;95941.91;5155885;27;20663;-62
2021/04/12 11:39:57;;;;;;;10.70;3.75;;;;;;;21.90;31.48;95932.00;5156198;27;20233;-62
2021/04/12 11:42:30;;;;;;;9.00;3.67;;;;;;;22.06;30.40;95914.13;5155878;27;20272;-63
2021/04/12 11:45:04;;;;;;;4.88;3.20;;;;;;;22.18;30.57;95921.09;5155909;27;20204;-61
2021/04/12 11:47:52;;;;;;;7.13;2.92;;;;;;;22.04;32.37;95913.72;5155586;27;20288;-62
2021/04/12 11:50:31;;;;;;;15.10;5.85;;;;;;;21.99;31.66;95913.25;5156145;27;20198;-61
2021/04/12 11:53:04;;;;;;;18.08;7.30;;;;;;;21.76;31.27;95911.38;5155425;27;20245;-61
2021/04/12 11:55:37;;;;;;;11.82;3.78;;;;;;;21.95;31.96;95909.78;5155608;27;20213;-62
2021/04/12 11:58:12;;;;;;;7.80;2.90;;;;;;;21.82;30.66;95906.53;5155655;27;20277;-62
2021/04/12 12:00:49;;;;;;;12.75;4.30;;;;;;;22.04;32.82;95900.47;5155704;27;20205;-62
2021/04/12 12:03:36;;;;;;;12.82;3.40;;;;;;;22.11;31.60;95895.28;5155285;27;20276;-62
2021/04/12 12:06:12;;;;;;;19.05;4.80;;;;;;;21.94;31.35;95890.50;5150975;27;20272;-62
2021/04/12 12:08:54;;;;;;;12.63;3.50;;;;;;;21.83;31.55;95881.59;5155146;27;20362;-62
2021/04/12 12:11:32;;;;;;;14.07;3.97;;;;;;;21.78;30.22;95887.97;5155330;27;20190;-63
2021/04/12 12:14:04;;;;;;;6.20;3.22;;;;;;;22.01;32.01;95880.03;5154791;27;20693;-62
2021/04/12 12:16:34;;;;;;;6.15;3.17;;;;;;;22.16;31.39;95879.09;5155015;27;20664;-63
2021/04/12 12:19:11;;;;;;;9.23;4.32;;;;;;;22.16;31.81;95876.44;5154926;27;20253;-62
2021/04/12 12:21:48;;;;;;;7.82;3.28;;;;;;;22.41;31.75;95868.06;5155332;27;20201;-63
2021/04/12 12:24:23;;;;;;;7.72;3.05;;;;;;;22.52;31.30;95866.28;5155096;27;20196;-62
2021/04/12 12:27:05;;;;;;;5.50;2.90;;;;;;;22.61;33.00;95864.91;5154806;27;20198;-62
2021/04/12 12:29:38;;;;;;;7.18;3.10;;;;;;;22.61;29.81;95861.50;5154783;27;20710;-62
2021/04/12 12:32:37;;;;;;;11.05;5.25;;;;;;;22.47;30.90;95856.00;5154742;27;20200;-62
2021/04/12 12:35:17;;;;;;;5.70;3.00;;;;;;;22.46;29.21;95846.56;5154018;27;20229;-62
2021/04/12 12:37:54;;;;;;;6.93;3.30;;;;;;;22.69;29.31;95845.31;5154546;27;20190;-62
2021/04/12 12:40:24;;;;;;;10.20;3.55;;;;;;;23.26;32.31;95837.19;5154437;27;20279;-61
2021/04/12 12:43:00;;;;;;;13.50;6.93;;;;;;;23.57;31.12;95842.78;5153976;27;20726;-63
2021/04/12 12:45:30;;;;;;;8.07;3.17;;;;;;;23.51;28.63;95840.84;5154403;27;20277;-64
2021/04/12 12:48:03;;;;;;;9.18;3.40;;;;;;;23.64;28.99;95834.09;5154960;27;20240;-62
2021/04/12 12:50:34;;;;;;;11.65;3.20;;;;;;;23.81;28.72;95828.13;5154344;27;20204;-61
2021/04/12 12:53:07;;;;;;;8.93;3.20;;;;;;;23.40;26.80;95821.38;5154209;27;20216;-62
2021/04/12 12:55:40;;;;;;;8.35;3.92;;;;;;;22.97;28.63;95823.66;5154313;27;20320;-62
2021/04/12 12:58:11;;;;;;;10.55;3.45;;;;;;;22.95;30.92;95822.50;5154106;27;20194;-61
2021/04/12 13:00:40;;;;;;;7.43;3.08;;;;;;;23.03;27.64;95813.50;5154211;27;20618;-63
2021/04/12 13:03:20;;;;;;;7.72;3.03;;;;;;;22.97;29.44;95807.75;5153776;27;20281;-62
2021/04/12 13:05:50;;;;;;;11.38;3.42;;;;;;;23.15;31.92;95805.28;5154372;27;20568;-63
2021/04/12 13:08:23;;;;;;;8.13;3.45;;;;;;;23.36;30.38;95799.38;5153685;27;20509;-61
2021/04/12 13:10:53;;;;;;;7.28;3.50;;;;;;;23.67;27.37;95795.44;5153618;27;20202;-63
2021/04/12 13:13:25;;;;;;;8.65;3.47;;;;;;;23.81;28.51;95790.25;5153323;27;20281;-63